Terminal Aerodrome Forecast
Issued by NWS

Home | Current Version | Previous Version | Text Only | Print | Product List | Glossary On
Versions: 1 2 3 4 5 6 7 8 9 10 11 12 13 14
000
FTUS41 KCLE 302337
TAFFDY
TAF
KFDY 302337Z 3100/3124 VRB03KT P6SM SCT120
     FM310900 28003KT 2SM BR OVC007
     FM311500 28005KT P6SM BKN015
     FM311700 30007KT P6SM BKN040
     FM311900 30007KT P6SM SCT050=

USA.gov is the U.S. government's official web portal to all federal, state and local government web resources and services.